Time;durP1;ratioP1;P1;durP2;ratioP2;P2;SDS_P1;SDS_P2;PMS_P1;PMS_P2;Temp;Humidity;BMP_temperature;BMP_pressure;BME280_temperature;BME280_humidity;BME280_pressure;Samples;Min_cycle;Max_cycle;Signal;HPM_P1;HPM_P2
2023/04/02 00:00:32;;;;;;;;;;;;;;;7.95;59.16;100150.44;4941384;28;19930;-42
2023/04/02 00:03:02;;;;;;;;;;;;;;;8.73;53.01;100190.38;4940220;28;19934;-42
2023/04/02 00:05:29;;;;;;;;;;;;;;;8.61;53.37;100190.44;4940878;28;19979;-42
2023/04/02 00:07:56;;;;;;;;;;;;;;;8.85;52.88;100214.28;4942437;28;19921;-42
2023/04/02 00:10:31;;;;;;;;;;;;;;;8.85;56.14;100220.31;4940729;28;20393;-42
2023/04/02 00:12:59;;;;;;;;;;;;;;;8.47;59.11;100208.47;4941905;28;19969;-42
2023/04/02 00:15:25;;;;;;;;;;;;;;;8.20;61.69;100183.72;4940580;28;19922;-42
2023/04/02 00:17:50;;;;;;;;;;;;;;;8.59;58.19;100210.13;4948886;28;19965;-42
2023/04/02 00:20:15;;;;;;;;;;;;;;;8.53;62.63;100207.59;4940387;28;19957;-42
2023/04/02 00:22:42;;;;;;;;;;;;;;;8.37;63.26;100197.38;4938231;28;20055;-42
2023/04/02 00:25:11;;;;;;;;;;;;;;;8.59;62.94;100213.56;4940077;28;20938;-42
2023/04/02 00:27:36;;;;;;;;;;;;;;;7.51;69.73;100151.41;4939818;28;19976;-42
2023/04/02 00:30:03;;;;;;;;;;;;;;;8.14;60.26;100210.28;4941970;28;19926;-42
2023/04/02 00:32:30;;;;;;;;;;;;;;;9.00;58.56;100265.59;4942025;28;19922;-42
2023/04/02 00:34:55;;;;;;;;;;;;;;;8.42;63.67;100229.91;4939125;28;20024;-42
2023/04/02 00:37:22;;;;;;;;;;;;;;;8.55;60.82;100247.84;4936104;28;19953;-42
2023/04/02 00:39:48;;;;;;;;;;;;;;;8.75;58.52;100264.84;4941025;28;19953;-42
2023/04/02 00:42:13;;;;;;;;;;;;;;;7.63;67.06;100201.81;4940361;28;20864;-42
2023/04/02 00:44:41;;;;;;;;;;;;;;;7.75;61.14;100231.69;4972545;28;19934;-42
2023/04/02 00:47:11;;;;;;;;;;;;;;;7.95;59.47;100260.75;4935765;28;19923;-42
2023/04/02 00:49:39;;;;;;;;;;;;;;;7.99;57.65;100282.13;4971872;28;19930;-42
2023/04/02 00:52:12;;;;;;;;;;;;;;;8.09;59.49;100288.09;4940330;28;20625;-42
2023/04/02 00:54:51;;;;;;;;;;;;;;;8.07;59.13;100306.06;4939634;28;19930;-42
2023/04/02 00:57:19;;;;;;;;;;;;;;;8.31;61.16;100324.88;4937255;28;19929;-42
2023/04/02 00:59:52;;;;;;;;;;;;;;;7.47;65.24;100272.72;4939809;28;19961;-42
2023/04/02 01:02:17;;;;;;;;;;;;;;;8.71;59.07;100350.47;4953425;28;20425;-42
2023/04/02 01:04:50;;;;;;;;;;;;;;;7.59;66.74;100284.69;4941456;28;19956;-42
2023/04/02 01:07:15;;;;;;;;;;;;;;;8.28;59.64;100335.13;4936068;28;20017;-42
2023/04/02 01:09:59;;;;;;;;;;;;;;;7.49;67.68;100291.53;4952295;28;19927;-42
2023/04/02 01:12:28;;;;;;;;;;;;;;;7.75;61.14;100312.06;4938247;28;19929;-42
2023/04/02 01:14:53;;;;;;;;;;;;;;;8.26;59.08;100358.25;4934175;28;20634;-42
2023/04/02 01:17:37;;;;;;;;;;;;;;;7.88;60.92;100343.69;4937143;28;19980;-42
2023/04/02 01:20:08;;;;;;;;;;;;;;;7.60;66.94;100316.34;4937022;28;20421;-42
2023/04/02 01:22:36;;;;;;;;;;;;;;;7.69;65.44;100330.00;4937369;28;19926;-42
2023/04/02 01:25:03;;;;;;;;;;;;;;;7.71;67.76;100332.59;4935761;28;20398;-42
2023/04/02 01:27:32;;;;;;;;;;;;;;;7.73;68.37;100335.97;4938006;28;19929;-42
2023/04/02 01:29:57;;;;;;;;;;;;;;;7.77;67.12;100335.13;4953413;28;20013;-42
2023/04/02 01:32:23;;;;;;;;;;;;;;;7.56;71.29;100328.28;4935259;28;19922;-42
2023/04/02 01:34:49;;;;;;;;;;;;;;;7.51;73.66;100312.88;4936608;28;19930;-42
2023/04/02 01:37:33;;;;;;;;;;;;;;;7.22;73.55;100301.72;4936746;28;20009;-42
2023/04/02 01:40:17;;;;;;;;;;;;;;;7.19;73.31;100300.00;4934455;28;19926;-42
2023/04/02 01:43:02;;;;;;;;;;;;;;;7.33;72.52;100300.03;4935955;28;20117;-41
2023/04/02 01:45:28;;;;;;;;;;;;;;;6.86;72.92;100288.78;4935328;28;20101;-42
2023/04/02 01:47:53;;;;;;;;;;;;;;;7.03;71.04;100317.03;4937431;28;19925;-41
2023/04/02 01:50:18;;;;;;;;;;;;;;;7.35;69.94;100349.59;4934436;28;20315;-42
2023/04/02 01:52:44;;;;;;;;;;;;;;;6.96;67.84;100338.34;4936703;28;19957;-42
2023/04/02 01:55:11;;;;;;;;;;;;;;;6.62;68.59;100345.88;4934695;28;19926;-42
2023/04/02 01:57:37;;;;;;;;;;;;;;;7.13;67.28;100385.38;4936627;28;19926;-42
2023/04/02 02:00:08;;;;;;;;;;;;;;;6.54;69.37;100354.34;4941201;28;20457;-42
2023/04/02 02:02:34;;;;;;;;;;;;;;;7.20;63.62;100411.88;4937853;28;19925;-42
2023/04/02 02:04:59;;;;;;;;;;;;;;;7.41;66.05;100431.63;4934463;28;20437;-42
2023/04/02 02:07:27;;;;;;;;;;;;;;;7.04;68.77;100405.81;4937201;28;20386;-42
2023/04/02 02:09:52;;;;;;;;;;;;;;;7.89;65.48;100454.84;4936909;28;20706;-42
2023/04/02 02:12:17;;;;;;;;;;;;;;;6.55;74.62;100364.59;4935805;28;20140;-42
2023/04/02 02:14:49;;;;;;;;;;;;;;;7.72;64.95;100441.97;4934106;28;20449;-41
2023/04/02 02:17:15;;;;;;;;;;;;;;;7.10;70.51;100411.00;4935851;28;19922;-42
2023/04/02 02:19:47;;;;;;;;;;;;;;;6.79;68.55;100406.53;4951799;28;19968;-42
2023/04/02 02:22:25;;;;;;;;;;;;;;;6.98;68.59;100426.31;4933969;28;19935;-42
2023/04/02 02:24:50;;;;;;;;;;;;;;;7.43;69.28;100445.28;4935933;28;19922;-42
2023/04/02 02:27:15;;;;;;;;;;;;;;;6.99;70.52;100428.00;4936016;28;20019;-42
2023/04/02 02:29:40;;;;;;;;;;;;;;;7.59;66.02;100468.41;4936550;28;20375;-42
2023/04/02 02:32:06;;;;;;;;;;;;;;;7.10;67.95;100449.41;4950006;28;20015;-42
2023/04/02 02:34:42;;;;;;;;;;;;;;;6.56;70.10;100432.00;4935179;28;20657;-42
2023/04/02 02:37:11;;;;;;;;;;;;;;;6.68;67.20;100456.00;4932879;28;21160;-42
2023/04/02 02:39:38;;;;;;;;;;;;;;;7.27;64.76;100494.75;4933697;28;20360;-41
2023/04/02 02:42:05;;;;;;;;;;;;;;;6.63;70.03;100464.47;4934169;28;21092;-42
2023/04/02 02:44:32;;;;;;;;;;;;;;;6.90;67.05;100502.22;4953158;28;20465;-42
2023/04/02 02:47:00;;;;;;;;;;;;;;;6.95;67.23;100513.34;4941079;28;19922;-42
2023/04/02 02:49:27;;;;;;;;;;;;;;;7.39;64.18;100535.84;4939502;28;19922;-42
2023/04/02 02:51:56;;;;;;;;;;;;;;;7.35;69.38;100523.00;4936886;28;19930;-42
2023/04/02 02:54:21;;;;;;;;;;;;;;;6.81;72.39;100500.44;4933877;28;19926;-42
2023/04/02 02:56:49;;;;;;;;;;;;;;;6.62;70.30;100491.78;4936960;28;19937;-42
2023/04/02 02:59:14;;;;;;;;;;;;;;;7.26;67.57;100541.75;4936202;28;20412;-42
2023/04/02 03:01:40;;;;;;;;;;;;;;;6.11;73.51;100472.53;4934798;28;19930;-42
2023/04/02 03:04:05;;;;;;;;;;;;;;;7.33;63.65;100562.28;4933947;28;20097;-42
2023/04/02 03:06:30;;;;;;;;;;;;;;;7.43;66.09;100568.31;4934051;28;19922;-42
2023/04/02 03:09:13;;;;;;;;;;;;;;;6.65;74.75;100509.69;4935053;28;19923;-42
2023/04/02 03:11:39;;;;;;;;;;;;;;;5.98;74.51;100483.50;4936689;28;21145;-42
2023/04/02 03:14:12;;;;;;;;;;;;;;;5.90;71.62;100495.31;4934215;28;19957;-42
2023/04/02 03:16:39;;;;;;;;;;;;;;;6.40;67.54;100549.56;4932463;28;19930;-42
2023/04/02 03:19:07;;;;;;;;;;;;;;;6.66;71.66;100565.19;4935630;28;19925;-42
2023/04/02 03:21:42;;;;;;;;;;;;;;;6.81;70.48;100571.28;4933459;28;19934;-42
2023/04/02 03:24:12;;;;;;;;;;;;;;;6.19;73.98;100524.63;4931150;28;19926;-42
2023/04/02 03:26:45;;;;;;;;;;;;;;;6.22;72.10;100536.59;4929765;28;20008;-42
2023/04/02 03:29:37;;;;;;;;;;;;;;;6.51;73.08;100562.47;4933970;28;20403;-42
2023/04/02 03:32:08;;;;;;;;;;;;;;;7.45;68.08;100614.47;4936235;28;19964;-42
2023/04/02 03:34:34;;;;;;;;;;;;;;;6.31;74.41;100538.41;4935436;28;19926;-42
2023/04/02 03:37:18;;;;;;;;;;;;;;;6.16;73.08;100524.63;4933409;28;20462;-42
2023/04/02 03:39:58;;;;;;;;;;;;;;;5.94;72.20;100531.19;4936235;28;21704;-42
2023/04/02 03:42:24;;;;;;;;;;;;;;;6.11;72.30;100571.44;4933555;28;19947;-42
2023/04/02 03:44:51;;;;;;;;;;;;;;;6.45;72.74;100577.78;4933638;28;19949;-42
2023/04/02 03:47:19;;;;;;;;;;;;;;;6.36;72.17;100580.22;4931702;28;20792;-42
2023/04/02 03:50:20;;;;;;;;;;;;;;;6.94;69.07;100629.47;4935981;28;19928;-42
2023/04/02 03:52:45;;;;;;;;;;;;;;;6.30;73.13;100569.97;4913997;28;20061;-42
2023/04/02 03:55:14;;;;;;;;;;;;;;;6.14;73.95;100571.50;4926866;28;19922;-42
2023/04/02 03:57:46;;;;;;;;;;;;;;;6.38;70.23;100604.13;4934470;28;19926;-42
2023/04/02 04:00:13;;;;;;;;;;;;;;;6.53;68.57;100622.22;4931112;28;20064;-42
2023/04/02 04:02:45;;;;;;;;;;;;;;;6.73;67.62;100645.47;4932853;28;20383;-42
2023/04/02 04:05:29;;;;;;;;;;;;;;;6.84;71.82;100654.13;4932996;28;20017;-42
2023/04/02 04:07:56;;;;;;;;;;;;;;;5.90;75.06;100600.13;4932951;28;20299;-42
2023/04/02 04:10:23;;;;;;;;;;;;;;;5.71;72.39;100602.47;4933027;28;20011;-42
2023/04/02 04:12:48;;;;;;;;;;;;;;;5.62;75.70;100607.44;4935131;28;20020;-42
2023/04/02 04:15:29;;;;;;;;;;;;;;;6.35;67.75;100674.06;4925414;28;19948;-42
2023/04/02 04:18:00;;;;;;;;;;;;;;;6.00;70.98;100661.69;4934908;28;20025;-42
2023/04/02 04:20:46;;;;;;;;;;;;;;;6.35;71.93;100683.44;4935085;28;19926;-42
2023/04/02 04:23:24;;;;;;;;;;;;;;;6.15;72.78;100671.25;4939146;28;19922;-42
2023/04/02 04:25:55;;;;;;;;;;;;;;;5.80;73.05;100648.59;4951398;28;19926;-42
2023/04/02 04:28:23;;;;;;;;;;;;;;;6.00;69.71;100686.41;4921983;28;19923;-42
2023/04/02 04:30:59;;;;;;;;;;;;;;;6.85;63.47;100742.91;4935175;28;19923;-42
2023/04/02 04:33:25;;;;;;;;;;;;;;;5.93;73.50;100697.34;4936404;28;19927;-42
2023/04/02 04:35:51;;;;;;;;;;;;;;;5.54;70.83;100685.69;4952153;28;20059;-42
2023/04/02 04:38:20;;;;;;;;;;;;;;;6.26;68.16;100737.91;4953752;28;19928;-42
2023/04/02 04:40:52;;;;;;;;;;;;;;;5.96;73.08;100715.31;4936485;28;19930;-42
2023/04/02 04:43:21;;;;;;;;;;;;;;;6.11;70.25;100730.88;4953233;28;20246;-42
2023/04/02 04:45:48;;;;;;;;;;;;;;;6.17;73.28;100736.06;4926038;28;19922;-42
2023/04/02 04:48:15;;;;;;;;;;;;;;;6.31;70.31;100737.97;4938766;28;19926;-42
2023/04/02 04:50:48;;;;;;;;;;;;;;;5.86;73.28;100715.16;4936349;28;19930;-42
2023/04/02 04:53:19;;;;;;;;;;;;;;;5.93;71.01;100733.13;4934643;28;19941;-42
2023/04/02 04:55:46;;;;;;;;;;;;;;;6.60;70.24;100779.31;4936888;28;21016;-42
2023/04/02 04:58:25;;;;;;;;;;;;;;;6.25;75.46;100754.13;4937290;28;20459;-42
2023/04/02 05:00:59;;;;;;;;;;;;;;;5.76;77.47;100708.19;4952020;28;19933;-42
2023/04/02 05:03:29;;;;;;;;;;;;;;;6.45;76.57;100757.78;4937298;28;20025;-42
2023/04/02 05:05:58;;;;;;;;;;;;;;;6.13;78.44;100718.97;4934748;28;20484;-42
2023/04/02 05:08:25;;;;;;;;;;;;;;;6.03;78.34;100717.97;4936528;28;21578;-42
2023/04/02 05:10:52;;;;;;;;;;;;;;;5.32;83.02;100679.38;4935997;28;20419;-42
2023/04/02 05:13:24;;;;;;;;;;;;;;;5.49;79.13;100687.31;4938485;28;19926;-42
2023/04/02 05:16:08;;;;;;;;;;;;;;;5.66;74.83;100727.63;4935695;28;20290;-42
2023/04/02 05:18:38;;;;;;;;;;;;;;;5.06;77.33;100701.91;4939368;28;20004;-42
2023/04/02 05:21:22;;;;;;;;;;;;;;;5.15;76.06;100742.94;4934845;28;19964;-42
2023/04/02 05:24:03;;;;;;;;;;;;;;;5.23;71.81;100767.78;4936178;28;19922;-42
2023/04/02 05:26:29;;;;;;;;;;;;;;;5.47;69.72;100796.28;4936361;28;19943;-42
2023/04/02 05:29:04;;;;;;;;;;;;;;;5.48;74.17;100804.00;4935919;28;19978;-42
2023/04/02 05:31:35;;;;;;;;;;;;;;;5.80;74.60;100819.03;4937948;28;20528;-42
2023/04/02 05:34:00;;;;;;;;;;;;;;;5.92;70.89;100836.25;4937661;28;19926;-42
2023/04/02 05:36:26;;;;;;;;;;;;;;;4.89;77.43;100786.72;4936194;28;20266;-42
2023/04/02 05:38:52;;;;;;;;;;;;;;;5.79;72.43;100846.28;4935950;28;20376;-42
2023/04/02 05:41:20;;;;;;;;;;;;;;;5.32;80.31;100797.75;4936218;28;19922;-42
2023/04/02 05:43:46;;;;;;;;;;;;;;;5.84;78.01;100821.66;4937843;28;20627;-42
2023/04/02 05:46:14;;;;;;;;;;;;;;;5.85;79.89;100814.84;4926552;28;20098;-42
2023/04/02 05:48:42;;;;;;;;;;;;;;;6.03;82.23;100812.63;4935350;28;19922;-42
2023/04/02 05:51:08;;;;;;;;;;;;;;;4.96;84.57;100742.59;4937370;28;19965;-42
2023/04/02 05:53:37;;;;;;;;;;;;;;;5.01;83.46;100763.09;4935145;28;19935;-42
2023/04/02 05:56:02;;;;;;;;;;;;;;;5.24;79.61;100787.41;4934795;28;19926;-42
2023/04/02 05:58:30;;;;;;;;;;;;;;;5.21;79.19;100789.88;4936641;28;20011;-42
2023/04/02 06:01:03;;;;;;;;;;;;;;;5.56;82.60;100816.91;4936712;28;19923;-42
2023/04/02 06:03:31;;;;;;;;;;;;;;;5.51;83.02;100808.31;4937433;28;19922;-42
2023/04/02 06:05:58;;;;;;;;;;;;;;;6.04;84.40;100821.13;4932694;28;19976;-42
2023/04/02 06:08:25;;;;;;;;;;;;;;;5.06;88.73;100750.44;4933405;28;20611;-42
2023/04/02 06:10:53;;;;;;;;;;;;;;;4.84;88.59;100746.63;4950171;28;19979;-42
2023/04/02 06:13:19;;;;;;;;;;;;;;;4.76;88.76;100746.47;4935756;28;19960;-42
2023/04/02 06:15:44;;;;;;;;;;;;;;;4.65;85.73;100760.69;4933096;28;20017;-42
2023/04/02 06:18:17;;;;;;;;;;;;;;;4.59;88.05;100767.41;4936083;28;19929;-42
2023/04/02 06:20:42;;;;;;;;;;;;;;;5.78;82.11;100834.34;4937094;28;19923;-42
2023/04/02 06:23:23;;;;;;;;;;;;;;;4.44;94.40;100741.56;4951609;28;19925;-42
2023/04/02 06:25:50;;;;;;;;;;;;;;;5.16;88.13;100786.38;4935458;28;20684;-42
2023/04/02 06:28:19;;;;;;;;;;;;;;;5.36;87.63;100794.44;4934407;28;20092;-42
2023/04/02 06:30:44;;;;;;;;;;;;;;;5.57;92.39;100780.31;4950271;28;20192;-42
2023/04/02 06:33:10;;;;;;;;;;;;;;;5.64;94.82;100769.34;4938094;28;19922;-42
2023/04/02 06:35:37;;;;;;;;;;;;;;;5.24;96.82;100721.00;4933933;28;19923;-42
2023/04/02 06:38:03;;;;;;;;;;;;;;;5.14;95.51;100723.34;4935067;28;19928;-42
2023/04/02 06:40:40;;;;;;;;;;;;;;;5.38;94.59;100738.22;4934820;28;19981;-42
2023/04/02 06:43:07;;;;;;;;;;;;;;;5.47;100.00;100722.19;4935632;28;20271;-42
2023/04/02 06:45:33;;;;;;;;;;;;;;;5.33;99.33;100706.63;4933495;28;19979;-42
2023/04/02 06:47:58;;;;;;;;;;;;;;;5.21;99.98;100703.03;4934327;28;20313;-42
2023/04/02 06:50:26;;;;;;;;;;;;;;;5.33;98.97;100712.59;4933520;28;19922;-42
2023/04/02 06:52:53;;;;;;;;;;;;;;;4.84;100.00;100686.22;4936008;28;19926;-42
2023/04/02 06:55:32;;;;;;;;;;;;;;;5.17;99.08;100713.19;4934311;28;20036;-42
2023/04/02 06:57:57;;;;;;;;;;;;;;;4.85;100.00;100702.38;4933404;28;19934;-42
2023/04/02 07:00:27;;;;;;;;;;;;;;;5.58;99.99;100734.31;4936270;28;19923;-42
2023/04/02 07:02:52;;;;;;;;;;;;;;;5.36;100.00;100722.91;4933115;28;19983;-42
2023/04/02 07:05:18;;;;;;;;;;;;;;;5.16;100.00;100708.91;4947609;28;19922;-42
2023/04/02 07:07:43;;;;;;;;;;;;;;;5.39;100.00;100725.50;4937330;28;20123;-42
2023/04/02 07:10:09;;;;;;;;;;;;;;;5.99;98.78;100771.63;4934855;28;20004;-42
2023/04/02 07:12:34;;;;;;;;;;;;;;;5.85;100.00;100743.25;4936548;28;19965;-42
2023/04/02 07:14:59;;;;;;;;;;;;;;;5.11;100.00;100692.63;4936494;28;20121;-42
2023/04/02 07:17:24;;;;;;;;;;;;;;;5.22;100.00;100720.09;4935081;28;19956;-42
2023/04/02 07:19:50;;;;;;;;;;;;;;;5.60;100.00;100754.78;4935234;28;20387;-42
2023/04/02 07:22:16;;;;;;;;;;;;;;;5.76;100.00;100764.41;4936148;28;20414;-42
2023/04/02 07:24:41;;;;;;;;;;;;;;;4.79;100.00;100708.25;4937110;28;20554;-42
2023/04/02 07:27:08;;;;;;;;;;;;;;;5.67;100.00;100751.50;4934647;28;20095;-42
2023/04/02 07:29:33;;;;;;;;;;;;;;;5.77;100.00;100745.72;4936034;28;19926;-42
2023/04/02 07:31:58;;;;;;;;;;;;;;;5.41;100.00;100718.72;4935281;28;20279;-42
2023/04/02 07:34:23;;;;;;;;;;;;;;;4.94;100.00;100703.41;4935068;28;20213;-42
2023/04/02 07:36:49;;;;;;;;;;;;;;;5.04;100.00;100735.09;4933327;28;20018;-42
2023/04/02 07:39:14;;;;;;;;;;;;;;;5.81;100.00;100770.47;4938271;28;19930;-42
2023/04/02 07:41:52;;;;;;;;;;;;;;;5.32;100.00;100725.38;4938316;28;19922;-42
2023/04/02 07:44:17;;;;;;;;;;;;;;;5.23;100.00;100723.50;4936052;28;20052;-42
2023/04/02 07:46:42;;;;;;;;;;;;;;;5.02;100.00;100726.56;4934546;28;19922;-42
2023/04/02 07:49:08;;;;;;;;;;;;;;;5.79;100.00;100776.38;4936764;28;19927;-42
2023/04/02 07:51:33;;;;;;;;;;;;;;;5.01;100.00;100735.03;4939080;28;19950;-42
2023/04/02 07:54:00;;;;;;;;;;;;;;;6.23;100.00;100810.38;4935854;28;20066;-42
2023/04/02 07:56:26;;;;;;;;;;;;;;;5.37;100.00;100747.59;4939426;28;20009;-42
2023/04/02 07:58:51;;;;;;;;;;;;;;;5.42;100.00;100756.19;4938658;28;20152;-42
2023/04/02 08:01:22;;;;;;;;;;;;;;;4.36;100.00;100682.75;4954407;28;19930;-42
2023/04/02 08:03:48;;;;;;;;;;;;;;;4.41;100.00;100710.91;4938595;28;20223;-42
2023/04/02 08:06:13;;;;;;;;;;;;;;;5.37;100.00;100780.81;4939650;28;19945;-42
2023/04/02 08:08:38;;;;;;;;;;;;;;;5.34;100.00;100790.97;4937326;28;19945;-42
2023/04/02 08:11:04;;;;;;;;;;;;;;;5.39;100.00;100794.47;4936795;28;19925;-42
2023/04/02 08:13:30;;;;;;;;;;;;;;;5.45;100.00;100794.59;4934966;28;20084;-42
2023/04/02 08:15:57;;;;;;;;;;;;;;;4.59;100.00;100725.72;4936465;28;20148;-42
2023/04/02 08:18:22;;;;;;;;;;;;;;;6.01;100.00;100826.22;4940423;28;19980;-42
2023/04/02 08:20:47;;;;;;;;;;;;;;;5.05;100.00;100743.63;4938105;28;20373;-42
2023/04/02 08:23:14;;;;;;;;;;;;;;;6.05;100.00;100802.41;4939409;28;20406;-42
2023/04/02 08:25:40;;;;;;;;;;;;;;;5.45;100.00;100753.72;4936200;28;19926;-42
2023/04/02 08:28:05;;;;;;;;;;;;;;;5.77;100.00;100772.94;4936377;28;20031;-42
2023/04/02 08:30:31;;;;;;;;;;;;;;;5.02;100.00;100717.19;4939117;28;20008;-42
2023/04/02 08:32:56;;;;;;;;;;;;;;;4.76;100.00;100713.28;4938627;28;20630;-42
2023/04/02 08:35:22;;;;;;;;;;;;;;;5.12;100.00;100732.69;4937237;28;19998;-42
2023/04/02 08:37:47;;;;;;;;;;;;;;;5.97;100.00;100763.06;4940249;28;19922;-42
2023/04/02 08:40:24;;;;;;;;;;;;;;;5.63;100.00;100716.50;4937084;28;19922;-42
2023/04/02 08:43:08;;;;;;;;;;;;;;;6.69;100.00;100741.88;4930582;28;19926;-42
2023/04/02 08:45:36;;;;;;;;;;;;;;;5.50;100.00;100623.47;4937956;28;20753;-42
2023/04/02 08:48:04;;;;;;;;;;;;;;;5.03;100.00;100592.94;4940414;28;20009;-42
2023/04/02 08:50:31;;;;;;;;;;;;;;;5.74;100.00;100652.75;4934509;28;20003;-42
2023/04/02 08:52:56;;;;;;;;;;;;;;;6.34;100.00;100686.81;4936429;28;21269;-42
2023/04/02 08:55:31;;;;;;;;;;;;;;;5.65;100.00;100635.59;4934378;28;20020;-42
2023/04/02 08:57:58;;;;;;;;;;;;;;;6.57;100.00;100690.53;4936757;28;19969;-42
2023/04/02 09:00:29;;;;;;;;;;;;;;;5.36;100.00;100592.59;4937850;28;19948;-42
2023/04/02 09:03:13;;;;;;;;;;;;;;;5.79;100.00;100615.31;4936613;28;19932;-42
2023/04/02 09:05:39;;;;;;;;;;;;;;;6.02;100.00;100605.44;4951014;28;20610;-42
2023/04/02 09:08:09;;;;;;;;;;;;;;;5.70;100.00;100572.59;4937182;28;20417;-42
2023/04/02 09:10:36;;;;;;;;;;;;;;;5.78;100.00;100567.59;4934720;28;20414;-42
2023/04/02 09:13:01;;;;;;;;;;;;;;;6.75;100.00;100600.28;4937647;28;19947;-42
2023/04/02 09:15:32;;;;;;;;;;;;;;;6.46;100.00;100543.69;4935152;28;20504;-42
2023/04/02 09:18:18;;;;;;;;;;;;;;;6.36;100.00;100529.06;4934554;28;20528;-42
2023/04/02 09:20:43;;;;;;;;;;;;;;;6.25;100.00;100516.19;4937645;28;19926;-42
2023/04/02 09:23:13;;;;;;;;;;;;;;;6.07;100.00;100494.69;4938059;28;20088;-42
2023/04/02 09:25:41;;;;;;;;;;;;;;;5.69;100.00;100478.03;4936451;28;19922;-42
2023/04/02 09:28:08;;;;;;;;;;;;;;;6.02;100.00;100498.00;4937408;28;20015;-42
2023/04/02 09:30:42;;;;;;;;;;;;;;;5.98;100.00;100491.19;4940907;28;20053;-42
2023/04/02 09:33:07;;;;;;;;;;;;;;;7.03;100.00;100516.81;4954760;28;19927;-42
2023/04/02 09:35:37;;;;;;;;;;;;;;;7.00;100.00;100452.78;4935459;28;19965;-42
2023/04/02 09:38:19;;;;;;;;;;;;;;;7.13;100.00;100435.75;4937554;28;20434;-42
2023/04/02 09:40:44;;;;;;;;;;;;;;;6.57;100.00;100378.25;4935034;28;20000;-42
2023/04/02 09:43:15;;;;;;;;;;;;;;;6.18;100.00;100349.00;4937280;28;20399;-42
2023/04/02 09:45:41;;;;;;;;;;;;;;;6.71;100.00;100388.59;4937914;28;20056;-42
2023/04/02 09:48:23;;;;;;;;;;;;;;;7.13;100.00;100375.13;4937473;28;19918;-42
2023/04/02 09:50:48;;;;;;;;;;;;;;;5.89;100.00;100291.63;4938021;28;19919;-42
2023/04/02 09:53:28;;;;;;;;;;;;;;;6.06;100.00;100302.84;4937273;28;19925;-42
2023/04/02 09:56:21;;;;;;;;;;;;;;;5.97;100.00;100302.78;4936403;28;20551;-42
2023/04/02 09:59:01;;;;;;;;;;;;;;;6.73;100.00;100329.69;4940921;28;20911;-42
2023/04/02 10:01:33;;;;;;;;;;;;;;;6.81;100.00;100284.50;4940346;28;19929;-42
2023/04/02 10:03:59;;;;;;;;;;;;;;;6.61;100.00;100271.63;4941396;28;19973;-42
2023/04/02 10:06:25;;;;;;;;;;;;;;;6.71;100.00;100268.25;4935195;28;20057;-42
2023/04/02 10:08:50;;;;;;;;;;;;;;;6.32;100.00;100226.28;4938028;28;19918;-42
2023/04/02 10:11:21;;;;;;;;;;;;;;;6.60;100.00;100257.97;4936339;28;19928;-42
2023/04/02 10:13:53;;;;;;;;;;;;;;;6.54;100.00;100244.28;4949748;28;20468;-42
2023/04/02 10:16:21;;;;;;;;;;;;;;;6.73;100.00;100260.56;4950798;28;20196;-42
2023/04/02 10:18:53;;;;;;;;;;;;;;;7.10;100.00;100256.44;4919346;28;20347;-41
2023/04/02 10:21:22;;;;;;;;;;;;;;;6.77;100.00;100205.97;4936661;28;19932;-42
2023/04/02 10:23:47;;;;;;;;;;;;;;;5.90;100.00;100178.28;4939096;28;20424;-42
2023/04/02 10:26:33;;;;;;;;;;;;;;;6.38;100.00;100213.50;4933724;28;21354;-42
2023/04/02 10:29:02;;;;;;;;;;;;;;;7.85;100.00;100247.97;4927203;28;19965;-42
2023/04/02 10:31:33;;;;;;;;;;;;;;;8.11;100.00;100194.03;4936211;28;19930;-42
2023/04/02 10:34:01;;;;;;;;;;;;;;;7.06;100.00;100119.81;4938412;28;19930;-42
2023/04/02 10:36:47;;;;;;;;;;;;;;;6.41;100.00;100084.72;4937115;28;19922;-42
2023/04/02 10:39:12;;;;;;;;;;;;;;;6.20;100.00;100080.41;4952015;28;19923;-42
2023/04/02 10:41:37;;;;;;;;;;;;;;;6.74;100.00;100091.63;4936844;28;19933;-42
2023/04/02 10:44:05;;;;;;;;;;;;;;;6.58;100.00;100093.31;4937813;28;19925;-42
2023/04/02 10:46:49;;;;;;;;;;;;;;;6.68;100.00;100087.38;4937080;28;21665;-42
2023/04/02 10:49:34;;;;;;;;;;;;;;;6.51;100.00;100078.78;4939126;28;19929;-42
2023/04/02 10:52:02;;;;;;;;;;;;;;;7.18;100.00;100110.41;4938321;28;19933;-42
2023/04/02 10:54:30;;;;;;;;;;;;;;;6.62;100.00;100089.91;4935268;28;19938;-42
2023/04/02 10:56:57;;;;;;;;;;;;;;;6.16;100.00;100083.81;4932991;28;19922;-42
2023/04/02 10:59:27;;;;;;;;;;;;;;;6.69;100.00;100083.94;4934317;28;19926;-42
2023/04/02 11:01:52;;;;;;;;;;;;;;;6.59;100.00;100089.91;4952635;28;19930;-42
2023/04/02 11:04:19;;;;;;;;;;;;;;;6.56;100.00;100095.00;4934261;28;19923;-42
2023/04/02 11:06:52;;;;;;;;;;;;;;;7.10;100.00;100072.84;4933491;28;20008;-42
2023/04/02 11:09:20;;;;;;;;;;;;;;;7.71;100.00;100053.09;4932886;28;19926;-42
2023/04/02 11:11:46;;;;;;;;;;;;;;;6.10;100.00;99977.25;4933644;28;19930;-42
2023/04/02 11:14:15;;;;;;;;;;;;;;;6.53;100.00;100048.94;4933686;28;19926;-42
2023/04/02 11:16:41;;;;;;;;;;;;;;;6.48;100.00;100022.50;4936067;28;19926;-42
2023/04/02 11:19:15;;;;;;;;;;;;;;;7.33;100.00;100047.19;4939657;28;19922;-42
2023/04/02 11:21:46;;;;;;;;;;;;;;;6.64;100.00;100047.25;4937352;28;19948;-42
2023/04/02 11:24:24;;;;;;;;;;;;;;;6.90;100.00;100059.19;4936378;28;19922;-42
2023/04/02 11:26:49;;;;;;;;;;;;;;;7.70;100.00;100066.75;4933036;28;19994;-42
2023/04/02 11:29:17;;;;;;;;;;;;;;;7.01;100.00;100000.31;4937180;28;20613;-42
2023/04/02 11:31:43;;;;;;;;;;;;;;;7.19;100.00;99996.88;4939435;28;19964;-42
2023/04/02 11:34:12;;;;;;;;;;;;;;;7.29;100.00;99965.22;4940558;28;20147;-42
2023/04/02 11:36:49;;;;;;;;;;;;;;;7.33;100.00;99966.91;4940525;28;19977;-42
2023/04/02 11:39:34;;;;;;;;;;;;;;;6.23;100.00;99937.22;4945796;28;19925;-42
2023/04/02 11:42:01;;;;;;;;;;;;;;;7.18;100.00;99982.31;4939220;28;19926;-42
2023/04/02 11:44:27;;;;;;;;;;;;;;;7.13;100.00;99969.53;4941228;28;20008;-41
2023/04/02 11:46:52;;;;;;;;;;;;;;;6.86;100.00;99975.56;4939623;28;19926;-42
2023/04/02 11:49:49;;;;;;;;;;;;;;;7.53;100.00;99970.25;4937308;28;19950;-42
2023/04/02 11:52:19;;;;;;;;;;;;;;;7.64;100.00;99931.78;4920098;28;19926;-42
2023/04/02 11:54:44;;;;;;;;;;;;;;;6.88;100.00;99881.66;4957233;28;19934;-42
2023/04/02 11:57:36;;;;;;;;;;;;;;;6.97;100.00;99884.22;4938122;28;19932;-42
2023/04/02 12:00:07;;;;;;;;;;;;;;;8.01;100.00;99895.66;4962985;28;19926;-42
2023/04/02 12:02:42;;;;;;;;;;;;;;;8.33;100.00;99891.97;4942511;28;20144;-42
2023/04/02 12:05:16;;;;;;;;;;;;;;;7.72;100.00;99847.97;4935290;28;19933;-42
2023/04/02 12:07:45;;;;;;;;;;;;;;;7.03;100.00;99789.44;4954041;28;19933;-42
2023/04/02 12:10:17;;;;;;;;;;;;;;;8.24;100.00;99809.94;4937624;28;20562;-42
2023/04/02 12:12:42;;;;;;;;;;;;;;;8.25;100.00;99789.38;4940752;28;19922;-42
2023/04/02 12:15:26;;;;;;;;;;;;;;;8.24;100.00;99787.69;4941766;28;19922;-42
2023/04/02 12:17:51;;;;;;;;;;;;;;;7.64;100.00;99736.94;4940982;28;20628;-42
2023/04/02 12:20:19;;;;;;;;;;;;;;;8.35;100.00;99742.25;4939410;28;19930;-42
2023/04/02 12:23:02;;;;;;;;;;;;;;;7.46;100.00;99716.59;4941560;28;19926;-42
2023/04/02 12:25:30;;;;;;;;;;;;;;;7.69;100.00;99706.13;4939671;28;19923;-42
2023/04/02 12:28:13;;;;;;;;;;;;;;;8.01;100.00;99700.69;4938481;28;19925;-42
2023/04/02 12:30:38;;;;;;;;;;;;;;;7.70;100.00;99689.88;4939165;28;20091;-41
2023/04/02 12:33:19;;;;;;;;;;;;;;;8.03;100.00;99682.69;4938915;28;19922;-42
2023/04/02 12:35:45;;;;;;;;;;;;;;;8.00;100.00;99667.34;4941265;28;19930;-42
2023/04/02 12:38:21;;;;;;;;;;;;;;;7.33;100.00;99628.69;4940189;28;19968;-42
2023/04/02 12:40:53;;;;;;;;;;;;;;;7.81;100.00;99636.78;4938862;28;19925;-42
2023/04/02 12:43:26;;;;;;;;;;;;;;;7.85;100.00;99624.78;4939625;28;19965;-42
2023/04/02 12:45:52;;;;;;;;;;;;;;;8.20;100.00;99615.81;4941062;28;19944;-42
2023/04/02 12:48:17;;;;;;;;;;;;;;;8.79;100.00;99604.75;4938190;28;19922;-42
2023/04/02 12:50:42;;;;;;;;;;;;;;;6.69;100.00;99584.81;4946006;28;20406;-42
2023/04/02 12:53:17;;;;;;;;;;;;;;;8.85;100.00;99582.41;4944854;28;19922;-42
2023/04/02 12:55:45;;;;;;;;;;;;;;;10.33;100.00;99555.69;4941851;28;19937;-42